Time;durP1;ratioP1;P1;durP2;ratioP2;P2;SDS_P1;SDS_P2;PMS_P1;PMS_P2;Temp;Humidity;BMP_temperature;BMP_pressure;BME280_temperature;BME280_humidity;BME280_pressure;Samples;Min_cycle;Max_cycle;Signal;HPM_P1;HPM_P2
2023/11/14 00:02:26;;;;;;;11.48;2.20;;;;;;;;;;5056517;28;20042;-84
2023/11/14 00:04:52;;;;;;;19.17;2.88;;;;;;;;;;5056621;28;20553;-84
2023/11/14 00:07:17;;;;;;;13.43;2.30;;;;;;;;;;5074604;28;20017;-84
2023/11/14 00:09:42;;;;;;;11.53;2.30;;;;;;;;;;5074357;28;20257;-84
2023/11/14 00:12:07;;;;;;;14.77;2.63;;;;;;;;;;5056535;28;20318;-84
2023/11/14 00:14:33;;;;;;;15.95;2.28;;;;;;;;;;5074355;28;20020;-84
2023/11/14 00:16:58;;;;;;;12.60;2.40;;;;;;;;;;5074454;28;20017;-84
2023/11/14 00:19:23;;;;;;;17.20;2.67;;;;;;;;;;5055643;28;20042;-84
2023/11/14 00:21:50;;;;;;;15.95;2.15;;;;;;;;;;5056257;28;20016;-84
2023/11/14 00:24:15;;;;;;;22.75;2.60;;;;;;;;;;5074153;28;20041;-84
2023/11/14 00:26:41;;;;;;;9.10;1.90;;;;;;;;;;5073979;28;20123;-84
2023/11/14 00:29:06;;;;;;;15.93;2.58;;;;;;;;;;5056361;28;20492;-84
2023/11/14 00:31:32;;;;;;;10.80;2.10;;;;;;;;;;5074382;28;20041;-84
2023/11/14 00:33:58;;;;;;;12.80;2.23;;;;;;;;;;5074075;28;20075;-84
2023/11/14 00:36:23;;;;;;;14.65;2.50;;;;;;;;;;5074182;28;20323;-84
2023/11/14 00:38:48;;;;;;;8.33;2.37;;;;;;;;;;5074109;28;20024;-83
2023/11/14 00:41:13;;;;;;;12.33;2.30;;;;;;;;;;5055625;28;20283;-83
2023/11/14 00:43:39;;;;;;;13.77;2.70;;;;;;;;;;5073741;28;20337;-84
2023/11/14 00:46:09;;;;;;;10.43;2.20;;;;;;;;;;5073867;28;20016;-84
2023/11/14 00:48:34;;;;;;;15.68;2.30;;;;;;;;;;5055729;28;20253;-84
2023/11/14 00:50:59;;;;;;;9.37;2.30;;;;;;;;;;5073776;28;20020;-84
2023/11/14 00:53:25;;;;;;;17.30;2.37;;;;;;;;;;5073769;28;20725;-84
2023/11/14 00:55:50;;;;;;;13.57;2.33;;;;;;;;;;5055443;28;20020;-83
2023/11/14 00:58:15;;;;;;;13.03;2.70;;;;;;;;;;5055618;28;20031;-83
2023/11/14 01:00:40;;;;;;;16.30;2.47;;;;;;;;;;5055582;28;20303;-84
2023/11/14 01:03:05;;;;;;;20.50;2.67;;;;;;;;;;5073449;28;20064;-84
2023/11/14 01:05:31;;;;;;;14.57;2.23;;;;;;;;;;5073394;28;20539;-84
2023/11/14 01:07:56;;;;;;;15.15;2.45;;;;;;;;;;5055480;28;20024;-84
2023/11/14 01:10:21;;;;;;;19.70;2.37;;;;;;;;;;5073181;28;20070;-83
2023/11/14 01:12:47;;;;;;;10.98;2.30;;;;;;;;;;5073400;28;20468;-83
2023/11/14 01:15:12;;;;;;;20.50;2.45;;;;;;;;;;5073349;28;20077;-84
2023/11/14 01:17:38;;;;;;;9.05;2.08;;;;;;;;;;5073029;28;20028;-84
2023/11/14 01:20:03;;;;;;;8.77;2.05;;;;;;;;;;5055533;28;20031;-84
2023/11/14 01:22:28;;;;;;;27.52;2.92;;;;;;;;;;5055313;28;20020;-84
2023/11/14 01:24:53;;;;;;;17.37;2.47;;;;;;;;;;5054879;28;20149;-84
2023/11/14 01:27:19;;;;;;;11.43;1.88;;;;;;;;;;5073222;28;20261;-84
2023/11/14 01:29:45;;;;;;;8.43;1.70;;;;;;;;;;5055129;28;20392;-84
2023/11/14 01:32:10;;;;;;;12.55;2.20;;;;;;;;;;5072893;28;20324;-84
2023/11/14 01:34:35;;;;;;;15.60;2.22;;;;;;;;;;5072835;28;20478;-84
2023/11/14 01:37:01;;;;;;;14.48;1.88;;;;;;;;;;5055007;28;20055;-84
2023/11/14 01:39:27;;;;;;;15.10;2.87;;;;;;;;;;5072865;28;20028;-83
2023/11/14 01:41:52;;;;;;;18.00;2.05;;;;;;;;;;5054993;28;20253;-84
2023/11/14 01:44:18;;;;;;;18.35;2.30;;;;;;;;;;5055033;28;20388;-84
2023/11/14 01:46:44;;;;;;;14.30;2.20;;;;;;;;;;5072559;28;20020;-84
2023/11/14 01:49:09;;;;;;;13.82;2.20;;;;;;;;;;5054779;28;20317;-83
2023/11/14 01:51:35;;;;;;;15.82;3.00;;;;;;;;;;5072871;28;20012;-84
2023/11/14 01:54:01;;;;;;;10.10;1.75;;;;;;;;;;5072655;28;20127;-84
2023/11/14 01:56:27;;;;;;;18.77;2.38;;;;;;;;;;5054882;28;20029;-84
2023/11/14 01:58:52;;;;;;;20.77;2.17;;;;;;;;;;5072882;28;20016;-84
2023/11/14 02:01:18;;;;;;;15.35;2.67;;;;;;;;;;5054507;28;20111;-83
2023/11/14 02:03:44;;;;;;;9.93;1.77;;;;;;;;;;5072754;28;20061;-84
2023/11/14 02:06:09;;;;;;;17.92;2.67;;;;;;;;;;5054688;28;20028;-84
2023/11/14 02:08:35;;;;;;;9.70;1.88;;;;;;;;;;5055048;28;20490;-84
2023/11/14 02:11:00;;;;;;;17.95;3.35;;;;;;;;;;5072489;28;20032;-84
2023/11/14 02:13:26;;;;;;;18.92;3.03;;;;;;;;;;5072632;28;20040;-84
2023/11/14 02:15:51;;;;;;;18.85;2.20;;;;;;;;;;5072568;28;20096;-83
2023/11/14 02:18:17;;;;;;;17.95;2.80;;;;;;;;;;5054485;28;20024;-84
2023/11/14 02:20:42;;;;;;;18.30;2.58;;;;;;;;;;5054709;28;20017;-84
2023/11/14 02:23:09;;;;;;;18.75;2.25;;;;;;;;;;5054482;28;20086;-84
2023/11/14 02:25:35;;;;;;;13.23;2.53;;;;;;;;;;5054375;28;20046;-83
2023/11/14 02:28:00;;;;;;;13.75;2.08;;;;;;;;;;5054525;28;20388;-84
2023/11/14 02:30:25;;;;;;;14.13;1.93;;;;;;;;;;5072078;28;20032;-84
2023/11/14 02:32:51;;;;;;;15.60;2.40;;;;;;;;;;5054347;28;20307;-84
2023/11/14 02:35:16;;;;;;;6.60;1.80;;;;;;;;;;5054386;28;20036;-84
2023/11/14 02:37:41;;;;;;;12.60;1.80;;;;;;;;;;5054324;28;20074;-84
2023/11/14 02:40:08;;;;;;;10.20;1.93;;;;;;;;;;5072443;28;20327;-84
2023/11/14 02:42:34;;;;;;;16.42;2.58;;;;;;;;;;5075175;28;20020;-84
2023/11/14 02:44:59;;;;;;;10.75;1.85;;;;;;;;;;5075880;28;20032;-83
2023/11/14 02:47:24;;;;;;;16.33;2.53;;;;;;;;;;5076090;28;20016;-84
2023/11/14 02:49:55;;;;;;;8.82;1.98;;;;;;;;;;5076054;28;20009;-84
2023/11/14 02:52:20;;;;;;;10.88;2.50;;;;;;;;;;5057950;28;20074;-84
2023/11/14 02:54:45;;;;;;;8.93;2.10;;;;;;;;;;5075849;28;20028;-84
2023/11/14 02:57:12;;;;;;;12.03;2.40;;;;;;;;;;5057995;28;20254;-84
2023/11/14 02:59:37;;;;;;;10.23;2.15;;;;;;;;;;5075882;28;20265;-84
2023/11/14 03:02:04;;;;;;;15.98;2.35;;;;;;;;;;5075643;28;20481;-84
2023/11/14 03:04:29;;;;;;;9.93;1.88;;;;;;;;;;5057842;28;20384;-83
2023/11/14 03:06:54;;;;;;;7.95;1.75;;;;;;;;;;5075517;28;20021;-84
2023/11/14 03:09:19;;;;;;;13.57;1.90;;;;;;;;;;5057667;28;20025;-84
2023/11/14 03:11:45;;;;;;;11.77;2.05;;;;;;;;;;5075699;28;20668;-84
2023/11/14 03:14:10;;;;;;;15.52;2.25;;;;;;;;;;5057752;28;20032;-84
2023/11/14 03:16:36;;;;;;;11.73;2.72;;;;;;;;;;5057591;28;20489;-84
2023/11/14 03:19:01;;;;;;;13.27;2.20;;;;;;;;;;5075473;28;20569;-84
2023/11/14 03:21:27;;;;;;;4.63;1.80;;;;;;;;;;5041037;28;20036;-84
2023/11/14 03:23:52;;;;;;;12.10;1.85;;;;;;;;;;5075183;28;20262;-83
2023/11/14 03:26:17;;;;;;;12.63;2.07;;;;;;;;;;5057464;28;20030;-84
2023/11/14 03:28:43;;;;;;;12.87;2.20;;;;;;;;;;5057459;28;20264;-84
2023/11/14 03:31:08;;;;;;;10.35;2.15;;;;;;;;;;5075174;28;20048;-84
2023/11/14 03:33:34;;;;;;;13.87;2.47;;;;;;;;;;5075158;28;20511;-84
2023/11/14 03:35:59;;;;;;;15.73;2.58;;;;;;;;;;5057180;28;20772;-84
2023/11/14 03:38:25;;;;;;;9.17;1.77;;;;;;;;;;5057047;28;20419;-83
2023/11/14 03:40:50;;;;;;;10.87;1.60;;;;;;;;;;5075185;28;20284;-84
2023/11/14 03:43:15;;;;;;;18.67;2.47;;;;;;;;;;5057274;28;20272;-84
2023/11/14 03:45:40;;;;;;;5.13;1.63;;;;;;;;;;5056823;28;20372;-84
2023/11/14 03:48:05;;;;;;;16.42;2.40;;;;;;;;;;5075078;28;20376;-84
2023/11/14 03:50:31;;;;;;;15.40;2.60;;;;;;;;;;5056635;28;20476;-84
2023/11/14 03:52:56;;;;;;;18.90;2.33;;;;;;;;;;5073954;28;20020;-84
2023/11/14 03:55:21;;;;;;;10.10;2.28;;;;;;;;;;5075263;28;20273;-84
2023/11/14 03:57:47;;;;;;;14.90;2.30;;;;;;;;;;5075179;28;20032;-84
2023/11/14 04:00:12;;;;;;;14.13;1.60;;;;;;;;;;5074915;28;20028;-84
2023/11/14 04:02:38;;;;;;;13.68;2.50;;;;;;;;;;5056773;28;20270;-84
2023/11/14 04:05:04;;;;;;;11.35;2.08;;;;;;;;;;5056615;28;20040;-84
2023/11/14 04:07:30;;;;;;;14.45;2.33;;;;;;;;;;5056702;28;20024;-84
2023/11/14 04:09:55;;;;;;;24.88;3.08;;;;;;;;;;5056590;28;20111;-84
2023/11/14 04:12:20;;;;;;;9.48;2.00;;;;;;;;;;5074555;28;20425;-84
2023/11/14 04:14:47;;;;;;;8.00;2.00;;;;;;;;;;5056493;28;20052;-84
2023/11/14 04:17:12;;;;;;;18.85;2.20;;;;;;;;;;5074189;28;20673;-84
2023/11/14 04:19:38;;;;;;;10.23;1.90;;;;;;;;;;5074058;28;20044;-84
2023/11/14 04:22:03;;;;;;;14.37;2.60;;;;;;;;;;5056332;28;20027;-83
2023/11/14 04:24:28;;;;;;;12.38;2.80;;;;;;;;;;5056237;28;20266;-84
2023/11/14 04:26:53;;;;;;;10.77;2.37;;;;;;;;;;5074189;28;20061;-85
2023/11/14 04:29:19;;;;;;;10.80;2.03;;;;;;;;;;5074144;28;20013;-84
2023/11/14 04:31:44;;;;;;;12.03;1.90;;;;;;;;;;5074168;28;20016;-84
2023/11/14 04:34:09;;;;;;;7.67;1.70;;;;;;;;;;5074046;28;20257;-84
2023/11/14 04:36:34;;;;;;;19.67;2.53;;;;;;;;;;5055938;28;20032;-84
2023/11/14 04:38:59;;;;;;;19.33;1.93;;;;;;;;;;5074233;28;20257;-85
2023/11/14 04:41:25;;;;;;;19.95;2.50;;;;;;;;;;5073060;28;20110;-84
2023/11/14 04:43:50;;;;;;;7.73;1.63;;;;;;;;;;5073809;28;20103;-84
2023/11/14 04:46:15;;;;;;;11.88;1.77;;;;;;;;;;5055825;28;20020;-84
2023/11/14 04:48:42;;;;;;;6.07;1.30;;;;;;;;;;5073865;28;20019;-84
2023/11/14 04:51:08;;;;;;;13.02;2.22;;;;;;;;;;5055816;28;20035;-84
2023/11/14 04:53:33;;;;;;;13.87;2.37;;;;;;;;;;5073727;28;20020;-84
2023/11/14 04:55:58;;;;;;;12.63;2.47;;;;;;;;;;5055819;28;20289;-84
2023/11/14 04:58:23;;;;;;;8.57;1.85;;;;;;;;;;5055393;28;20253;-84
2023/11/14 05:00:48;;;;;;;10.75;1.92;;;;;;;;;;5055692;28;20012;-84
2023/11/14 05:03:14;;;;;;;15.38;2.35;;;;;;;;;;5055713;28;20499;-84
2023/11/14 05:05:39;;;;;;;14.50;2.15;;;;;;;;;;5072984;28;20025;-83
2023/11/14 05:08:04;;;;;;;7.30;1.80;;;;;;;;;;5073456;28;20031;-85
2023/11/14 05:10:30;;;;;;;7.87;1.70;;;;;;;;;;5073315;28;20092;-83
2023/11/14 05:12:56;;;;;;;8.50;2.08;;;;;;;;;;5073608;28;20017;-83
2023/11/14 05:15:21;;;;;;;16.83;3.10;;;;;;;;;;5073673;28;20524;-83
2023/11/14 05:17:46;;;;;;;12.45;2.17;;;;;;;;;;5055816;28;20166;-83
2023/11/14 05:20:12;;;;;;;8.63;2.23;;;;;;;;;;5055734;28;20016;-83
2023/11/14 05:22:38;;;;;;;13.10;2.13;;;;;;;;;;5055603;28;20261;-83
2023/11/14 05:25:04;;;;;;;11.90;1.75;;;;;;;;;;5073293;28;20511;-83
2023/11/14 05:27:29;;;;;;;10.70;2.40;;;;;;;;;;5055457;28;20021;-83
2023/11/14 05:29:55;;;;;;;12.83;2.67;;;;;;;;;;5073642;28;20019;-83
2023/11/14 05:32:20;;;;;;;8.55;2.00;;;;;;;;;;5073469;28;20257;-83
2023/11/14 05:34:45;;;;;;;12.18;2.03;;;;;;;;;;5073433;28;20021;-83
2023/11/14 05:37:11;;;;;;;11.87;1.70;;;;;;;;;;5073485;28;20017;-83
2023/11/14 05:39:36;;;;;;;5.40;1.50;;;;;;;;;;5055419;28;20360;-83
2023/11/14 05:42:02;;;;;;;6.47;2.07;;;;;;;;;;5055407;28;20268;-83
2023/11/14 05:44:28;;;;;;;11.35;1.65;;;;;;;;;;5073362;28;20412;-83
2023/11/14 05:46:53;;;;;;;15.95;1.92;;;;;;;;;;5055311;28;20495;-83
2023/11/14 05:49:19;;;;;;;14.20;2.05;;;;;;;;;;5073319;28;20013;-83
2023/11/14 05:51:44;;;;;;;7.97;1.97;;;;;;;;;;5073239;28;20028;-83
2023/11/14 05:54:09;;;;;;;11.70;1.87;;;;;;;;;;5073248;28;20024;-83
2023/11/14 05:56:34;;;;;;;6.10;1.30;;;;;;;;;;5055201;28;20245;-83
2023/11/14 05:58:59;;;;;;;17.00;2.27;;;;;;;;;;5055176;28;20496;-83
2023/11/14 06:01:25;;;;;;;10.45;1.83;;;;;;;;;;5073079;28;20245;-83
2023/11/14 06:03:50;;;;;;;14.07;2.47;;;;;;;;;;5055227;28;20064;-83
2023/11/14 06:06:15;;;;;;;10.27;1.77;;;;;;;;;;5073060;28;20400;-83
2023/11/14 06:08:41;;;;;;;11.50;1.90;;;;;;;;;;5073099;28;20705;-83
2023/11/14 06:11:06;;;;;;;8.73;2.22;;;;;;;;;;5073070;28;20016;-83
2023/11/14 06:13:31;;;;;;;13.90;2.03;;;;;;;;;;5055094;28;20070;-83
2023/11/14 06:15:56;;;;;;;12.20;2.17;;;;;;;;;;5055318;28;20241;-83
2023/11/14 06:18:21;;;;;;;10.30;1.70;;;;;;;;;;5077115;28;20387;-83
2023/11/14 06:20:47;;;;;;;12.48;1.83;;;;;;;;;;5059132;28;20679;-83
2023/11/14 06:23:12;;;;;;;7.03;1.38;;;;;;;;;;5077017;28;20031;-83
2023/11/14 06:25:37;;;;;;;6.85;1.45;;;;;;;;;;5076777;28;20041;-83
2023/11/14 06:28:03;;;;;;;5.07;1.37;;;;;;;;;;5058964;28;20048;-83
2023/11/14 06:30:28;;;;;;;10.68;1.63;;;;;;;;;;5076929;28;20241;-83
2023/11/14 06:32:54;;;;;;;6.25;1.20;;;;;;;;;;5058877;28;20499;-83
2023/11/14 06:35:19;;;;;;;10.10;2.05;;;;;;;;;;5076750;28;20045;-83
2023/11/14 06:37:44;;;;;;;8.97;1.77;;;;;;;;;;5058706;28;20492;-83
2023/11/14 06:40:10;;;;;;;8.20;1.63;;;;;;;;;;5058633;28;20020;-83
2023/11/14 06:42:35;;;;;;;8.98;1.85;;;;;;;;;;5076665;28;20020;-83
2023/11/14 06:45:00;;;;;;;13.50;1.70;;;;;;;;;;5076477;28;20453;-83
2023/11/14 06:47:28;;;;;;;9.33;1.80;;;;;;;;;;5058604;28;20780;-83
2023/11/14 06:49:53;;;;;;;14.27;1.90;;;;;;;;;;5076515;28;20377;-83
2023/11/14 06:52:18;;;;;;;11.20;1.63;;;;;;;;;;5058497;28;20013;-83
2023/11/14 06:54:43;;;;;;;3.57;1.20;;;;;;;;;;5076431;28;20021;-83
2023/11/14 06:57:09;;;;;;;13.20;1.67;;;;;;;;;;5058383;28;20070;-83
2023/11/14 06:59:34;;;;;;;12.98;1.75;;;;;;;;;;5058329;28;20037;-83
2023/11/14 07:02:01;;;;;;;6.00;1.60;;;;;;;;;;5058257;28;20123;-83
2023/11/14 07:04:27;;;;;;;7.03;1.58;;;;;;;;;;5058329;28;20013;-83
2023/11/14 07:06:52;;;;;;;7.65;1.52;;;;;;;;;;5076156;28;20016;-83
2023/11/14 07:09:21;;;;;;;11.35;1.10;;;;;;;;;;5058169;28;20027;-83
2023/11/14 07:11:47;;;;;;;9.63;1.88;;;;;;;;;;5058104;28;20013;-83
2023/11/14 07:14:12;;;;;;;8.70;1.35;;;;;;;;;;5057983;28;20023;-83
2023/11/14 07:16:39;;;;;;;8.02;1.67;;;;;;;;;;5058068;28;20036;-83
2023/11/14 07:19:04;;;;;;;11.63;2.00;;;;;;;;;;5075986;28;20484;-83
2023/11/14 07:21:32;;;;;;;8.18;1.38;;;;;;;;;;5057926;28;20047;-83
2023/11/14 07:23:58;;;;;;;5.65;1.65;;;;;;;;;;5057675;28;20028;-83
2023/11/14 07:26:23;;;;;;;12.93;1.95;;;;;;;;;;5075692;28;20031;-83
2023/11/14 07:28:48;;;;;;;5.03;1.40;;;;;;;;;;5057526;28;20120;-83
2023/11/14 07:31:14;;;;;;;11.20;1.80;;;;;;;;;;5075687;28;20253;-83
2023/11/14 07:33:39;;;;;;;9.18;1.70;;;;;;;;;;5075665;28;20028;-83
2023/11/14 07:36:05;;;;;;;12.93;2.10;;;;;;;;;;5057659;28;20024;-83
2023/11/14 07:38:30;;;;;;;5.35;1.15;;;;;;;;;;5057642;28;20257;-83
2023/11/14 07:40:55;;;;;;;9.90;1.70;;;;;;;;;;5057516;28;20070;-83
2023/11/14 07:43:24;;;;;;;13.20;1.65;;;;;;;;;;5075427;28;20340;-83
2023/11/14 07:45:49;;;;;;;4.55;1.38;;;;;;;;;;5057431;28;20021;-83
2023/11/14 07:48:15;;;;;;;5.72;1.45;;;;;;;;;;5075405;28;20017;-83
2023/11/14 07:50:41;;;;;;;7.75;1.90;;;;;;;;;;5075379;28;20021;-83
2023/11/14 07:53:06;;;;;;;7.88;1.88;;;;;;;;;;5075332;28;20025;-83
2023/11/14 07:55:32;;;;;;;14.45;1.95;;;;;;;;;;5075303;28;20026;-83
2023/11/14 07:57:57;;;;;;;8.43;1.67;;;;;;;;;;5057179;28;20435;-83
2023/11/14 08:00:24;;;;;;;9.65;1.75;;;;;;;;;;5057211;28;20526;-83
2023/11/14 08:02:49;;;;;;;10.30;1.60;;;;;;;;;;5057187;28;20028;-83
2023/11/14 08:05:14;;;;;;;11.90;1.93;;;;;;;;;;5075360;28;20062;-83
2023/11/14 08:07:39;;;;;;;8.35;2.05;;;;;;;;;;5075027;28;20249;-83
2023/11/14 08:10:05;;;;;;;11.63;2.50;;;;;;;;;;5074915;28;20376;-83
2023/11/14 08:12:30;;;;;;;18.08;2.28;;;;;;;;;;5074968;28;20714;-83
2023/11/14 08:14:55;;;;;;;8.10;1.70;;;;;;;;;;5074978;28;20017;-83
2023/11/14 08:17:21;;;;;;;10.50;1.65;;;;;;;;;;5074901;28;20021;-83
2023/11/14 08:19:46;;;;;;;10.80;2.20;;;;;;;;;;5056874;28;20598;-83
2023/11/14 08:22:11;;;;;;;6.93;1.57;;;;;;;;;;5074766;28;20028;-83
2023/11/14 08:24:37;;;;;;;7.53;1.70;;;;;;;;;;5056573;28;20281;-83
2023/11/14 08:27:04;;;;;;;8.43;1.90;;;;;;;;;;5074556;28;20020;-83
2023/11/14 08:29:29;;;;;;;5.45;1.33;;;;;;;;;;5074606;28;20486;-83
2023/11/14 08:31:55;;;;;;;10.67;1.63;;;;;;;;;;5056689;28;20013;-83
2023/11/14 08:34:20;;;;;;;11.40;1.70;;;;;;;;;;5056511;28;20020;-83
2023/11/14 08:36:45;;;;;;;15.47;1.83;;;;;;;;;;5056496;28;20344;-83
2023/11/14 08:39:13;;;;;;;13.48;2.63;;;;;;;;;;5055754;28;20013;-83
2023/11/14 08:41:38;;;;;;;8.93;1.42;;;;;;;;;;5074354;28;20020;-83
2023/11/14 08:44:04;;;;;;;6.35;1.50;;;;;;;;;;5056439;28;20443;-83
2023/11/14 08:46:29;;;;;;;9.43;1.60;;;;;;;;;;5074232;28;20020;-83
2023/11/14 08:48:54;;;;;;;5.68;1.33;;;;;;;;;;5074330;28;20021;-83
2023/11/14 08:51:21;;;;;;;9.67;1.90;;;;;;;;;;5056278;28;20415;-83
2023/11/14 08:53:46;;;;;;;15.45;2.03;;;;;;;;;;5056278;28;20809;-83
2023/11/14 08:56:11;;;;;;;7.22;1.55;;;;;;;;;;5074245;28;20107;-83
2023/11/14 08:58:37;;;;;;;9.47;1.43;;;;;;;;;;5074039;28;20040;-83
2023/11/14 09:01:04;;;;;;;7.55;2.10;;;;;;;;;;5073970;28;20316;-83
2023/11/14 09:03:29;;;;;;;11.82;1.70;;;;;;;;;;5055948;28;20031;-83
2023/11/14 09:05:54;;;;;;;11.05;1.75;;;;;;;;;;5055855;28;20024;-83
2023/11/14 09:08:19;;;;;;;11.73;1.33;;;;;;;;;;5055926;28;20155;-83
2023/11/14 09:10:45;;;;;;;10.17;1.73;;;;;;;;;;5073792;28;20387;-83
2023/11/14 09:13:12;;;;;;;8.67;1.87;;;;;;;;;;5055936;28;20250;-83
2023/11/14 09:15:37;;;;;;;7.30;1.40;;;;;;;;;;5073765;28;20317;-83
2023/11/14 09:18:03;;;;;;;8.45;1.77;;;;;;;;;;5073734;28;20020;-84
2023/11/14 09:20:28;;;;;;;10.38;1.90;;;;;;;;;;5055739;28;20078;-83
2023/11/14 09:22:54;;;;;;;9.00;1.47;;;;;;;;;;5073612;28;20468;-84
2023/11/14 09:25:19;;;;;;;7.80;1.27;;;;;;;;;;5073391;28;20090;-83
2023/11/14 09:27:44;;;;;;;10.75;1.77;;;;;;;;;;5073807;28;20021;-83
2023/11/14 09:30:10;;;;;;;10.27;1.73;;;;;;;;;;5073534;28;20373;-83
2023/11/14 09:32:36;;;;;;;13.45;1.85;;;;;;;;;;5055529;28;20020;-83
2023/11/14 09:35:01;;;;;;;8.93;1.63;;;;;;;;;;5055395;28;20100;-83
2023/11/14 09:37:26;;;;;;;9.38;1.13;;;;;;;;;;5073393;28;20249;-83
2023/11/14 09:39:52;;;;;;;5.57;1.10;;;;;;;;;;5055469;28;20154;-83
2023/11/14 09:42:18;;;;;;;12.10;1.67;;;;;;;;;;5073399;28;20021;-83
2023/11/14 09:44:44;;;;;;;8.18;1.33;;;;;;;;;;5055355;28;20154;-83
2023/11/14 09:47:10;;;;;;;5.18;1.05;;;;;;;;;;5073276;28;20103;-83
2023/11/14 09:49:37;;;;;;;8.07;1.50;;;;;;;;;;5073360;28;20009;-83
2023/11/14 09:52:02;;;;;;;7.18;1.10;;;;;;;;;;5055256;28;20013;-83
2023/11/14 09:54:28;;;;;;;6.25;1.20;;;;;;;;;;5055277;28;20027;-83
2023/11/14 09:56:54;;;;;;;8.50;0.93;;;;;;;;;;5073161;28;20027;-83
2023/11/14 09:59:21;;;;;;;4.25;1.10;;;;;;;;;;5055179;28;20017;-83
2023/11/14 10:01:47;;;;;;;7.45;1.23;;;;;;;;;;5055205;28;20055;-83
2023/11/14 10:04:13;;;;;;;8.38;1.48;;;;;;;;;;5055201;28;20028;-83
2023/11/14 10:06:39;;;;;;;4.45;1.17;;;;;;;;;;5055134;28;20400;-83
2023/11/14 10:09:04;;;;;;;5.80;1.23;;;;;;;;;;5055310;28;20031;-83
2023/11/14 10:11:59;;;;;;;9.05;1.40;;;;;;;;;;5055118;28;20099;-83
2023/11/14 10:14:24;;;;;;;10.30;1.38;;;;;;;;;;5049615;28;20025;-83
2023/11/14 10:16:56;;;;;;;6.18;1.30;;;;;;;;;;5073017;28;20468;-83
2023/11/14 10:19:21;;;;;;;4.10;1.20;;;;;;;;;;5055133;28;20024;-83
2023/11/14 10:21:47;;;;;;;5.13;1.50;;;;;;;;;;5055064;28;20507;-83
2023/11/14 10:24:16;;;;;;;4.27;1.17;;;;;;;;;;5054747;28;20637;-83
2023/11/14 10:26:51;;;;;;;5.95;1.58;;;;;;;;;;5054870;28;20641;-83
2023/11/14 10:29:17;;;;;;;4.75;1.10;;;;;;;;;;5072984;28;20499;-83
2023/11/14 10:31:43;;;;;;;11.02;1.25;;;;;;;;;;5054851;28;20016;-83
2023/11/14 10:34:25;;;;;;;6.43;1.10;;;;;;;;;;5072844;28;20012;-83
2023/11/14 10:36:51;;;;;;;4.90;0.90;;;;;;;;;;5072853;28;20028;-83
2023/11/14 10:39:17;;;;;;;6.22;0.88;;;;;;;;;;5054858;28;20021;-83
2023/11/14 10:41:42;;;;;;;9.40;1.17;;;;;;;;;;5054826;28;20385;-83
2023/11/14 10:44:08;;;;;;;10.18;1.15;;;;;;;;;;5072988;28;20031;-83
2023/11/14 10:46:34;;;;;;;5.38;0.98;;;;;;;;;;5072711;28;20549;-83
2023/11/14 10:49:01;;;;;;;5.47;1.20;;;;;;;;;;5072730;28;20020;-83
2023/11/14 10:51:26;;;;;;;7.05;1.35;;;;;;;;;;5054758;28;20464;-83
2023/11/14 10:53:54;;;;;;;6.97;1.52;;;;;;;;;;5072770;28;20031;-83
2023/11/14 10:56:20;;;;;;;8.57;1.45;;;;;;;;;;5072745;28;20096;-83
2023/11/14 10:58:45;;;;;;;8.40;1.52;;;;;;;;;;5072614;28;20048;-83
2023/11/14 11:01:10;;;;;;;4.97;1.20;;;;;;;;;;5072676;28;20511;-83
2023/11/14 11:03:36;;;;;;;4.03;1.25;;;;;;;;;;5075304;28;20253;-83
2023/11/14 11:06:03;;;;;;;6.57;1.35;;;;;;;;;;5076071;28;20025;-83
2023/11/14 11:08:28;;;;;;;10.20;1.60;;;;;;;;;;5058310;28;20028;-83
2023/11/14 11:10:54;;;;;;;6.53;1.13;;;;;;;;;;5076178;28;20016;-83
2023/11/14 11:13:20;;;;;;;6.75;1.15;;;;;;;;;;5076012;28;20253;-83
2023/11/14 11:15:49;;;;;;;7.05;1.40;;;;;;;;;;5076068;28;20047;-83
2023/11/14 11:18:15;;;;;;;5.63;1.08;;;;;;;;;;5076044;28;20016;-83
2023/11/14 11:20:41;;;;;;;4.75;1.02;;;;;;;;;;5058060;28;20040;-83
2023/11/14 11:23:13;;;;;;;8.23;1.30;;;;;;;;;;5057982;28;20020;-83
2023/11/14 11:25:46;;;;;;;5.25;1.00;;;;;;;;;;5075628;28;20044;-83
2023/11/14 11:28:11;;;;;;;;;;;;;;;;;;5076262;28;20465;-83
2023/11/14 11:30:56;;;;;;;4.63;0.80;;;;;;;;;;5057786;28;20375;-83
2023/11/14 11:33:35;;;;;;;6.68;1.33;;;;;;;;;;5075481;28;20020;-83
2023/11/14 11:36:19;;;;;;;6.90;1.35;;;;;;;;;;5075591;28;20028;-83
2023/11/14 11:38:58;;;;;;;7.38;1.10;;;;;;;;;;5075609;28;20112;-83
2023/11/14 11:41:24;;;;;;;5.38;1.10;;;;;;;;;;5075518;28;20048;-83
2023/11/14 11:44:06;;;;;;;2.60;0.80;;;;;;;;;;5057566;28;20031;-83
2023/11/14 11:46:41;;;;;;;6.00;1.40;;;;;;;;;;5075627;28;20074;-83
2023/11/14 11:49:12;;;;;;;3.88;0.90;;;;;;;;;;5075447;28;20024;-83
2023/11/14 11:51:38;;;;;;;7.50;1.10;;;;;;;;;;5057483;28;20039;-83
2023/11/14 11:54:22;;;;;;;11.85;1.00;;;;;;;;;;5057422;28;20398;-83
2023/11/14 11:56:47;;;;;;;3.00;0.93;;;;;;;;;;5075274;28;20016;-83
2023/11/14 11:59:13;;;;;;;11.33;1.13;;;;;;;;;;5075298;28;20510;-83
2023/11/14 12:01:52;;;;;;;10.52;1.23;;;;;;;;;;5075239;28;20055;-83
2023/11/14 12:04:18;;;;;;;3.67;0.80;;;;;;;;;;5057305;28;20020;-83
2023/11/14 12:06:44;;;;;;;3.10;0.70;;;;;;;;;;5075018;28;20058;-83
2023/11/14 12:09:09;;;;;;;2.65;0.90;;;;;;;;;;5075052;28;20020;-83
2023/11/14 12:11:35;;;;;;;4.40;0.98;;;;;;;;;;5057036;28;20040;-83
2023/11/14 12:14:00;;;;;;;4.03;0.97;;;;;;;;;;5055952;28;20016;-83
2023/11/14 12:16:26;;;;;;;3.17;1.17;;;;;;;;;;5074888;28;20255;-82
2023/11/14 12:18:51;;;;;;;7.53;1.02;;;;;;;;;;5074849;28;20016;-83
2023/11/14 12:21:17;;;;;;;2.67;0.80;;;;;;;;;;5074853;28;20021;-83
2023/11/14 12:23:43;;;;;;;9.75;1.17;;;;;;;;;;5056788;28;20020;-83
2023/11/14 12:26:08;;;;;;;8.60;1.35;;;;;;;;;;5074419;28;20048;-83
2023/11/14 12:28:40;;;;;;;6.30;1.40;;;;;;;;;;5074612;28;20027;-83
2023/11/14 12:31:11;;;;;;;13.27;1.35;;;;;;;;;;5056731;28;20024;-83
2023/11/14 12:33:46;;;;;;;5.90;0.90;;;;;;;;;;5074564;28;20012;-83
2023/11/14 12:36:21;;;;;;;8.20;0.85;;;;;;;;;;5074503;28;20070;-83
2023/11/14 12:38:46;;;;;;;5.85;1.35;;;;;;;;;;5074470;28;20073;-83
2023/11/14 12:41:25;;;;;;;6.33;0.97;;;;;;;;;;5056434;28;20021;-83
2023/11/14 12:43:51;;;;;;;4.43;0.98;;;;;;;;;;5074303;28;20245;-83
2023/11/14 12:46:35;;;;;;;3.00;0.93;;;;;;;;;;5056343;28;20027;-83
2023/11/14 12:49:10;;;;;;;3.88;1.10;;;;;;;;;;5074259;28;20451;-83
2023/11/14 12:51:57;;;;;;;3.10;0.73;;;;;;;;;;5056280;28;20090;-83
2023/11/14 12:54:23;;;;;;;1.70;0.65;;;;;;;;;;5056087;28;20074;-83
2023/11/14 12:56:52;;;;;;;5.38;1.13;;;;;;;;;;5074089;28;20204;-83
2023/11/14 12:59:19;;;;;;;8.70;0.93;;;;;;;;;;5074042;28;20492;-83
2023/11/14 13:01:44;;;;;;;3.97;1.10;;;;;;;;;;5073978;28;20012;-83
2023/11/14 13:04:10;;;;;;;6.20;1.23;;;;;;;;;;5073936;28;20548;-83
2023/11/14 13:06:36;;;;;;;4.45;1.02;;;;;;;;;;5073836;28;20048;-83
2023/11/14 13:09:02;;;;;;;3.40;1.05;;;;;;;;;;5073815;28;20049;-83
2023/11/14 13:11:27;;;;;;;7.60;1.23;;;;;;;;;;5055909;28;20020;-82
2023/11/14 13:13:53;;;;;;;5.00;0.98;;;;;;;;;;5055820;28;20024;-83
2023/11/14 13:16:18;;;;;;;4.40;0.85;;;;;;;;;;5073743;28;20082;-83
2023/11/14 13:18:44;;;;;;;8.98;1.08;;;;;;;;;;5073698;28;20468;-83
2023/11/14 13:21:10;;;;;;;3.42;0.82;;;;;;;;;;5055723;28;20362;-83
2023/11/14 13:23:36;;;;;;;5.97;1.10;;;;;;;;;;5073598;28;20157;-83
2023/11/14 13:26:04;;;;;;;2.80;0.70;;;;;;;;;;5073123;28;20052;-83
2023/11/14 13:28:30;;;;;;;3.05;0.95;;;;;;;;;;5073618;28;20016;-83
2023/11/14 13:30:55;;;;;;;7.43;1.35;;;;;;;;;;5055585;28;20089;-83
2023/11/14 13:33:20;;;;;;;5.23;1.40;;;;;;;;;;5073492;28;20035;-83
2023/11/14 13:35:45;;;;;;;5.23;0.90;;;;;;;;;;5055468;28;20629;-83
2023/11/14 13:38:12;;;;;;;4.47;1.10;;;;;;;;;;5055418;28;20016;-83
2023/11/14 13:40:38;;;;;;;5.30;1.20;;;;;;;;;;5073526;28;20021;-83
2023/11/14 13:43:03;;;;;;;1.55;0.57;;;;;;;;;;5073442;28;20025;-83
2023/11/14 13:45:28;;;;;;;5.53;1.03;;;;;;;;;;5073350;28;20107;-83
2023/11/14 13:47:53;;;;;;;6.53;1.10;;;;;;;;;;5073303;28;20249;-83
2023/11/14 13:50:19;;;;;;;3.03;0.80;;;;;;;;;;5073304;28;20055;-83
2023/11/14 13:52:46;;;;;;;4.38;1.08;;;;;;;;;;5073290;28;20024;-83
2023/11/14 13:55:12;;;;;;;4.43;1.10;;;;;;;;;;5055288;28;20021;-83
2023/11/14 13:57:37;;;;;;;3.65;0.90;;;;;;;;;;5055290;28;20061;-83
2023/11/14 14:00:04;;;;;;;4.95;0.90;;;;;;;;;;5055223;28;20396;-83
2023/11/14 14:02:29;;;;;;;2.83;1.02;;;;;;;;;;5055162;28;20130;-83
2023/11/14 14:04:55;;;;;;;5.68;1.15;;;;;;;;;;5073216;28;20044;-83
2023/11/14 14:07:20;;;;;;;2.78;0.90;;;;;;;;;;5073047;28;20070;-83
2023/11/14 14:09:46;;;;;;;5.60;1.53;;;;;;;;;;5073116;28;20088;-83
2023/11/14 14:12:11;;;;;;;3.97;0.80;;;;;;;;;;5055072;28;20246;-83
2023/11/14 14:14:37;;;;;;;6.55;0.90;;;;;;;;;;5073105;28;20253;-83
2023/11/14 14:17:04;;;;;;;5.43;0.88;;;;;;;;;;5073026;28;20496;-82
2023/11/14 14:19:30;;;;;;;1.90;0.90;;;;;;;;;;5073020;28;20451;-83
2023/11/14 14:21:55;;;;;;;1.77;0.90;;;;;;;;;;5055073;28;20051;-83
2023/11/14 14:24:21;;;;;;;3.37;0.80;;;;;;;;;;5054824;28;20041;-83
2023/11/14 14:26:46;;;;;;;6.32;0.95;;;;;;;;;;5054972;28;20369;-83
2023/11/14 14:29:12;;;;;;;9.93;1.08;;;;;;;;;;5054956;28;20019;-82
2023/11/14 14:31:40;;;;;;;9.48;1.25;;;;;;;;;;5054885;28;20039;-83
2023/11/14 14:34:06;;;;;;;4.63;1.00;;;;;;;;;;5072843;28;20016;-83